Terminal Aerodrome Forecast
Issued by NWS Wakefield, VA

Home | Current Version | Previous Version | Text Only | Print | Product List | Glossary On
Versions: 1 2 3 4 5 6 7 8 9 10 11 12 13 14
000
FTUS41 KAKQ 302100 AAA
TAFECG
TAF AMD
KECG 302128Z 3021/3118 32012G18KT P6SM BKN080
     FM302300 32011KT P6SM SCT040
     FM311500 32013G19KT P6SM SKC=

USA.gov is the U.S. government's official web portal to all federal, state and local government web resources and services.